Terminal Aerodrome Forecast
Issued by NWS Binghamton, NY

Home | Current Version | Previous Version | Text Only | Print | Product List | Glossary On
Versions: 1 2 3 4 5 6 7 8 9 10 11 12 13 14 15 16 17
000
FTUS41 KBGM 230500
TAFSYR
TAF
KSYR 230537Z 2306/2406 28010G16KT P6SM OVC025
     FM230800 29012G18KT P6SM -SHRA OVC015
      TEMPO 2309/2313 3SM -SHRA BR OVC008
     FM231400 32018G25KT P6SM BKN025 OVC040
     FM232000 32018G25KT P6SM BKN035
     FM240200 31012G20KT P6SM SCT035=

USA.gov is the U.S. government's official web portal to all federal, state and local government web resources and services.